createdAt,value
2019-04-26T00:01:00.591Z,1.43
2019-04-26T00:03:35.451Z,1.50
2019-04-26T00:06:06.100Z,1.33
2019-04-26T00:08:36.091Z,1.73
2019-04-26T00:11:23.627Z,2.30
2019-04-26T00:14:11.389Z,2.37
2019-04-26T00:16:49.930Z,2.17
2019-04-26T00:19:18.703Z,3.67
2019-04-26T00:21:48.269Z,2.23
2019-04-26T00:24:17.476Z,1.10
2019-04-26T00:26:46.225Z,1.47
2019-04-26T00:29:15.419Z,1.20
2019-04-26T00:31:44.272Z,1.57
2019-04-26T00:34:13.603Z,2.43
2019-04-26T00:36:42.517Z,2.00
2019-04-26T00:39:11.686Z,2.57
2019-04-26T00:41:42.210Z,1.80
2019-04-26T00:44:12.195Z,1.77
2019-04-26T00:46:45.384Z,1.70
2019-04-26T00:49:15.707Z,11.90
2019-04-26T00:51:45.263Z,1.10
2019-04-26T00:54:15.429Z,1.80
2019-04-26T00:56:44.468Z,1.53
2019-04-26T00:59:14.906Z,2.70
2019-04-26T01:01:47.184Z,2.10
2019-04-26T01:04:17.089Z,2.30
2019-04-26T01:06:47.875Z,1.87
2019-04-26T01:09:17.442Z,1.20
2019-04-26T01:11:46.683Z,2.40
2019-04-26T01:14:16.616Z,2.40
2019-04-26T01:16:46.922Z,1.50
2019-04-26T01:19:17.093Z,1.30
2019-04-26T01:21:50.744Z,1.90
2019-04-26T01:24:23.155Z,2.77
2019-04-26T01:26:53.784Z,2.70
2019-04-26T01:29:25.995Z,1.57
2019-04-26T01:32:04.492Z,2.03
2019-04-26T01:34:34.302Z,2.00
2019-04-26T01:37:04.522Z,2.23
2019-04-26T01:39:36.034Z,2.03
2019-04-26T01:42:11.978Z,3.17
2019-04-26T01:45:03.344Z,2.70
2019-04-26T01:47:33.399Z,2.10
2019-04-26T01:50:02.378Z,2.33
2019-04-26T01:52:31.949Z,1.80
2019-04-26T01:55:01.444Z,4.13
2019-04-26T01:57:31.676Z,2.67
2019-04-26T02:00:18.729Z,4.47
2019-04-26T02:02:53.735Z,1.80
2019-04-26T02:05:24.484Z,1.27
2019-04-26T02:07:53.715Z,1.87
2019-04-26T02:10:25.224Z,2.60
2019-04-26T02:12:55.536Z,2.93
2019-04-26T02:15:29.181Z,1.33
2019-04-26T02:17:59.189Z,4.17
2019-04-26T02:20:56.531Z,2.97
2019-04-26T02:23:34.359Z,2.90
2019-04-26T02:26:21.682Z,2.27
2019-04-26T02:28:50.958Z,1.97
2019-04-26T02:31:20.356Z,2.57
2019-04-26T02:33:50.484Z,3.23
2019-04-26T02:36:20.848Z,2.80
2019-04-26T02:38:51.317Z,3.40
2019-04-26T02:41:21.070Z,2.50
2019-04-26T02:43:53.047Z,2.37
2019-04-26T02:46:33.136Z,3.20
2019-04-26T02:49:11.616Z,2.70
2019-04-26T02:51:46.483Z,4.07
2019-04-26T02:54:44.753Z,7.20
2019-04-26T02:57:25.715Z,5.50
2019-04-26T03:00:01.796Z,3.40
2019-04-26T03:02:33.281Z,3.97
2019-04-26T03:05:06.237Z,2.40
2019-04-26T03:08:09.791Z,3.00
2019-04-26T03:10:49.160Z,2.53
2019-04-26T03:13:32.006Z,2.53
2019-04-26T03:16:11.023Z,1.97
2019-04-26T03:19:10.216Z,16.30
2019-04-26T03:22:03.582Z,3.10
2019-04-26T03:24:41.196Z,3.60
2019-04-26T03:27:35.725Z,3.63
2019-04-26T03:30:22.810Z,2.40
2019-04-26T03:33:12.944Z,2.27
2019-04-26T03:36:17.263Z,3.10
2019-04-26T03:39:04.069Z,2.47
2019-04-26T03:42:11.329Z,8.03
2019-04-26T03:44:52.990Z,3.87
2019-04-26T03:47:25.551Z,4.07
2019-04-26T03:50:13.791Z,3.30
2019-04-26T03:53:13.891Z,3.63
2019-04-26T03:57:00.427Z,3.93
2019-04-26T03:59:44.173Z,4.20
2019-04-26T04:02:39.425Z,4.37
2019-04-26T04:05:31.219Z,4.43
2019-04-26T04:08:03.121Z,3.80
2019-04-26T04:10:48.195Z,3.93
2019-04-26T04:14:05.944Z,6.30
2019-04-26T04:16:52.760Z,4.47
2019-04-26T04:20:11.758Z,4.40
2019-04-26T04:22:47.318Z,8.87
2019-04-26T04:25:24.084Z,5.77
2019-04-26T04:28:03.164Z,4.40
2019-04-26T04:30:58.319Z,5.37
2019-04-26T04:33:45.341Z,6.70
2019-04-26T04:36:24.929Z,7.80
2019-04-26T04:39:13.599Z,7.30
2019-04-26T04:41:59.450Z,8.47
2019-04-26T04:45:16.706Z,6.07
2019-04-26T04:47:59.073Z,7.60
2019-04-26T04:50:45.485Z,6.00
2019-04-26T04:53:39.359Z,9.87
2019-04-26T04:56:28.946Z,4.60
2019-04-26T04:59:01.348Z,5.73
2019-04-26T05:02:22.248Z,10.67
2019-04-26T05:05:11.938Z,7.80
2019-04-26T05:07:52.356Z,6.13
2019-04-26T05:10:31.484Z,6.43
2019-04-26T05:13:16.067Z,6.60
2019-04-26T05:16:39.811Z,4.90
2019-04-26T05:19:59.012Z,7.00
2019-04-26T05:22:58.697Z,6.97
2019-04-26T05:26:32.020Z,7.00
2019-04-26T05:29:54.096Z,3.30
2019-04-26T05:32:59.350Z,6.47
2019-04-26T05:35:57.320Z,6.63
2019-04-26T05:39:03.017Z,5.63
2019-04-26T05:42:26.693Z,7.20
2019-04-26T05:46:06.605Z,8.20
2019-04-26T05:49:38.934Z,5.27
2019-04-26T05:53:03.005Z,6.10
2019-04-26T05:56:08.454Z,5.47
2019-04-26T05:59:01.602Z,7.53
2019-04-26T06:02:15.676Z,18.60
2019-04-26T06:05:07.672Z,6.37
2019-04-26T06:07:58.534Z,5.70
2019-04-26T06:10:53.164Z,5.10
2019-04-26T06:14:11.564Z,6.67
2019-04-26T06:17:12.179Z,6.23
2019-04-26T06:19:59.435Z,8.43
2019-04-26T06:22:57.694Z,7.50
2019-04-26T06:25:52.127Z,6.13
2019-04-26T06:28:52.952Z,9.00
2019-04-26T06:31:29.398Z,10.73
2019-04-26T06:34:09.463Z,8.83
2019-04-26T06:36:56.075Z,12.63
2019-04-26T06:39:36.103Z,6.23
2019-04-26T06:42:35.078Z,8.73
2019-04-26T06:46:02.681Z,4.33
2019-04-26T06:48:57.394Z,4.27
2019-04-26T06:51:34.014Z,8.40
2019-04-26T06:54:30.894Z,6.33
2019-04-26T06:57:35.768Z,4.03
2019-04-26T07:00:17.986Z,4.03
2019-04-26T07:03:16.709Z,4.97
2019-04-26T07:05:48.807Z,4.03
2019-04-26T07:08:57.800Z,8.63
2019-04-26T07:12:05.184Z,4.80
2019-04-26T07:15:28.413Z,4.78
2019-04-26T07:18:30.763Z,3.60
2019-04-26T07:21:26.894Z,5.90
2019-04-26T07:24:54.668Z,7.43
2019-04-26T07:28:06.483Z,5.80
2019-04-26T07:30:52.045Z,6.53
2019-04-26T07:34:09.492Z,9.70
2019-04-26T07:37:15.681Z,4.90
2019-04-26T07:40:53.536Z,6.87
2019-04-26T07:44:02.764Z,5.53
2019-04-26T07:47:08.538Z,7.77
2019-04-26T07:50:20.566Z,6.70
2019-04-26T07:53:49.082Z,10.03
2019-04-26T07:56:53.298Z,4.73
2019-04-26T08:00:10.880Z,6.90
2019-04-26T08:03:02.597Z,7.43
2019-04-26T08:05:45.632Z,10.10
2019-04-26T08:08:18.577Z,9.50
2019-04-26T08:11:10.721Z,6.87
2019-04-26T08:13:51.900Z,8.20
2019-04-26T08:16:41.130Z,6.97
2019-04-26T08:19:16.211Z,9.73
2019-04-26T08:21:48.989Z,7.90
2019-04-26T08:24:22.885Z,9.37
2019-04-26T08:27:19.657Z,6.07
2019-04-26T08:29:44.599Z,6.70
2019-04-26T08:32:22.051Z,8.97
2019-04-26T08:35:02.407Z,10.60
2019-04-26T08:37:54.631Z,6.77
2019-04-26T08:40:30.969Z,4.90
2019-04-26T08:43:30.855Z,8.70
2019-04-26T08:46:26.703Z,6.57
2019-04-26T08:49:08.344Z,8.80
2019-04-26T08:51:40.108Z,6.53
2019-04-26T08:54:22.861Z,7.23
2019-04-26T08:57:03.439Z,8.27
2019-04-26T08:59:37.670Z,5.30
2019-04-26T09:02:41.652Z,8.90
2019-04-26T09:05:37.659Z,8.60
2019-04-26T09:08:09.876Z,7.97
2019-04-26T09:10:43.307Z,6.40
2019-04-26T09:13:16.040Z,5.97
2019-04-26T09:16:25.143Z,8.17
2019-04-26T09:18:59.239Z,4.83
2019-04-26T09:21:35.334Z,9.03
2019-04-26T09:24:21.120Z,7.67
2019-04-26T09:27:10.620Z,4.43
2019-04-26T09:30:00.602Z,7.40
2019-04-26T09:32:34.125Z,7.30
2019-04-26T09:35:03.168Z,5.90
2019-04-26T09:37:32.217Z,5.87
2019-04-26T09:40:10.101Z,3.67
2019-04-26T09:42:41.105Z,7.03
2019-04-26T09:45:28.167Z,6.87
2019-04-26T09:48:07.915Z,4.20
2019-04-26T09:50:42.785Z,3.23
2019-04-26T09:53:11.717Z,4.03
2019-04-26T09:55:40.830Z,4.07
2019-04-26T09:58:10.607Z,7.40
2019-04-26T10:00:39.623Z,6.77
2019-04-26T10:03:09.405Z,4.30
2019-04-26T10:05:39.145Z,5.10
2019-04-26T10:08:12.194Z,4.03
2019-04-26T10:10:39.026Z,5.60
2019-04-26T10:13:19.299Z,4.47
2019-04-26T10:15:52.984Z,6.63
2019-04-26T10:18:24.260Z,5.07
2019-04-26T10:20:52.763Z,5.93
2019-04-26T10:23:21.631Z,6.77
2019-04-26T10:25:51.998Z,5.00
2019-04-26T10:28:21.601Z,7.40
2019-04-26T10:30:51.067Z,4.87
2019-04-26T10:33:20.025Z,6.37
2019-04-26T10:35:52.621Z,5.60
2019-04-26T10:38:23.700Z,6.70
2019-04-26T10:40:50.700Z,7.40
2019-04-26T10:43:19.933Z,3.60
2019-04-26T10:45:53.562Z,7.93
2019-04-26T10:48:19.884Z,5.90
2019-04-26T10:50:49.151Z,5.20
2019-04-26T10:53:25.635Z,6.57
2019-04-26T10:56:20.308Z,4.90
2019-04-26T10:58:58.546Z,11.17
2019-04-26T11:01:28.155Z,5.27
2019-04-26T11:03:57.232Z,5.07
2019-04-26T11:06:27.957Z,6.13
2019-04-26T11:08:57.996Z,7.87
2019-04-26T11:11:27.015Z,6.67
2019-04-26T11:13:57.491Z,5.97
2019-04-26T11:16:27.143Z,6.30
2019-04-26T11:18:57.202Z,6.93
2019-04-26T11:21:27.196Z,8.43
2019-04-26T11:23:56.091Z,6.90
2019-04-26T11:26:25.055Z,5.77
2019-04-26T11:28:55.711Z,6.67
2019-04-26T11:31:27.841Z,12.00
2019-04-26T11:34:05.068Z,12.13
2019-04-26T11:36:27.160Z,6.23
2019-04-26T11:38:56.809Z,5.60
2019-04-26T11:41:25.591Z,11.37
2019-04-26T11:43:54.698Z,6.50
2019-04-26T11:46:29.140Z,6.80
2019-04-26T11:48:59.117Z,8.17
2019-04-26T11:51:27.494Z,16.07
2019-04-26T11:53:56.500Z,6.77
2019-04-26T11:56:25.666Z,4.77
2019-04-26T11:58:56.781Z,7.60
2019-04-26T12:01:27.530Z,6.27
2019-04-26T12:04:10.478Z,6.13
2019-04-26T12:07:07.559Z,4.83
2019-04-26T12:09:42.241Z,4.20
2019-04-26T12:12:13.232Z,6.10
2019-04-26T12:14:41.992Z,8.77
2019-04-26T12:17:10.867Z,5.67
2019-04-26T12:19:39.875Z,5.27
2019-04-26T12:22:09.956Z,7.60
2019-04-26T12:24:39.122Z,6.30
2019-04-26T12:27:10.173Z,4.97
2019-04-26T12:29:38.810Z,5.07
2019-04-26T12:32:08.012Z,9.63
2019-04-26T12:34:36.824Z,4.87
2019-04-26T12:37:05.800Z,4.00
2019-04-26T12:39:36.801Z,5.97
2019-04-26T12:42:08.281Z,6.30
2019-04-26T12:44:44.348Z,4.97
2019-04-26T12:47:20.914Z,6.30
2019-04-26T12:49:49.847Z,13.67
2019-04-26T12:52:21.550Z,5.57
2019-04-26T12:54:49.519Z,5.90
2019-04-26T12:57:18.674Z,6.50
2019-04-26T12:59:47.561Z,5.13
2019-04-26T13:02:20.688Z,5.37
2019-04-26T13:04:47.542Z,6.73
2019-04-26T13:07:23.671Z,6.07
2019-04-26T13:10:10.958Z,4.53
2019-04-26T13:13:02.591Z,5.07
2019-04-26T13:16:02.282Z,6.57
2019-04-26T13:18:31.459Z,5.30
2019-04-26T13:21:03.014Z,5.93
2019-04-26T13:23:31.424Z,5.80
2019-04-26T13:26:07.678Z,11.40
2019-04-26T13:28:36.754Z,8.60
2019-04-26T13:31:05.803Z,9.57
2019-04-26T13:33:35.675Z,10.40
2019-04-26T13:36:04.896Z,7.53
2019-04-26T13:38:33.790Z,6.90
2019-04-26T13:41:04.641Z,7.30
2019-04-26T13:43:34.148Z,6.17
2019-04-26T13:46:12.424Z,3.67
2019-04-26T13:48:55.580Z,6.13
2019-04-26T13:51:25.758Z,4.27
2019-04-26T13:53:54.883Z,5.70
2019-04-26T13:56:23.779Z,7.50
2019-04-26T13:58:54.350Z,6.30
2019-04-26T14:01:23.633Z,7.47
2019-04-26T14:03:52.520Z,6.90
2019-04-26T14:06:21.886Z,6.87
2019-04-26T14:08:53.843Z,9.10
2019-04-26T14:11:27.889Z,4.80
2019-04-26T14:13:55.514Z,6.00
2019-04-26T14:16:23.514Z,6.60
2019-04-26T14:18:53.598Z,8.07
2019-04-26T14:21:22.927Z,3.93
2019-04-26T14:24:19.509Z,4.43
2019-04-26T14:26:52.632Z,5.30
2019-04-26T14:29:21.467Z,4.87
2019-04-26T14:31:51.534Z,4.53
2019-04-26T14:34:21.463Z,6.37
2019-04-26T14:36:50.671Z,7.57
2019-04-26T14:39:28.016Z,8.20
2019-04-26T14:41:52.824Z,5.90
2019-04-26T14:44:20.839Z,9.37
2019-04-26T14:46:53.250Z,8.10
2019-04-26T14:49:23.400Z,5.63
2019-04-26T14:51:55.861Z,7.63
2019-04-26T14:54:21.547Z,6.13
2019-04-26T14:56:52.301Z,5.53
2019-04-26T14:59:43.113Z,4.43
2019-04-26T15:02:22.742Z,6.40
2019-04-26T15:05:02.995Z,5.77
2019-04-26T15:07:32.497Z,6.60
2019-04-26T15:10:02.873Z,6.30
2019-04-26T15:12:32.425Z,9.20
2019-04-26T15:15:04.109Z,5.20
2019-04-26T15:17:32.318Z,8.57
2019-04-26T15:20:03.281Z,7.20
2019-04-26T15:22:32.990Z,9.50
2019-04-26T15:25:03.423Z,7.33
2019-04-26T15:27:36.270Z,6.50
2019-04-26T15:30:04.353Z,7.03
2019-04-26T15:32:35.260Z,4.20
2019-04-26T15:35:04.599Z,4.43
2019-04-26T15:37:33.622Z,2.63
2019-04-26T15:40:31.077Z,2.87
2019-04-26T15:43:14.236Z,3.73
2019-04-26T15:45:56.655Z,3.53
2019-04-26T15:48:54.512Z,3.40
2019-04-26T15:51:27.446Z,3.87
2019-04-26T15:53:56.854Z,5.87
2019-04-26T15:56:26.007Z,4.13
2019-04-26T15:58:55.147Z,3.53
2019-04-26T16:01:24.098Z,2.60
2019-04-26T16:03:53.178Z,3.87
2019-04-26T16:06:23.661Z,4.27
2019-04-26T16:08:52.594Z,4.73
2019-04-26T16:11:21.506Z,3.77
2019-04-26T16:13:52.115Z,2.73
2019-04-26T16:16:27.911Z,2.20
2019-04-26T16:18:55.451Z,3.57
2019-04-26T16:21:22.463Z,4.03
2019-04-26T16:23:55.014Z,2.60
2019-04-26T16:26:22.876Z,4.27
2019-04-26T16:29:10.508Z,5.37
2019-04-26T16:31:57.448Z,3.10
2019-04-26T16:34:27.126Z,3.40
2019-04-26T16:36:56.371Z,2.07
2019-04-26T16:39:32.287Z,4.07
2019-04-26T16:41:59.355Z,3.00
2019-04-26T16:44:30.144Z,3.00
2019-04-26T16:47:01.322Z,2.50
2019-04-26T16:49:27.923Z,5.53
2019-04-26T16:52:01.926Z,2.80
2019-04-26T16:54:28.101Z,3.43
2019-04-26T16:56:59.094Z,3.47
2019-04-26T16:59:28.976Z,5.00
2019-04-26T17:02:01.667Z,2.60
2019-04-26T17:04:32.261Z,3.17
2019-04-26T17:07:02.950Z,3.07
2019-04-26T17:09:52.276Z,2.43
2019-04-26T17:12:02.518Z,2.13
2019-04-26T17:14:32.158Z,2.70
2019-04-26T17:17:03.204Z,5.57
2019-04-26T17:19:34.243Z,3.40
2019-04-26T17:22:23.197Z,3.70
2019-04-26T17:25:26.847Z,3.00
2019-04-26T17:27:54.713Z,4.60
2019-04-26T17:30:25.253Z,5.43
2019-04-26T17:32:55.322Z,9.80
2019-04-26T17:35:25.401Z,6.00
2019-04-26T17:37:57.342Z,4.63
2019-04-26T17:40:25.429Z,5.20
2019-04-26T17:42:57.037Z,4.00
2019-04-26T17:45:26.615Z,4.70
2019-04-26T17:47:56.011Z,8.30
2019-04-26T17:50:24.898Z,4.87
2019-04-26T17:52:53.722Z,6.43
2019-04-26T17:55:22.920Z,5.47
2019-04-26T17:57:52.632Z,4.40
2019-04-26T18:00:27.279Z,5.03
2019-04-26T18:02:56.631Z,7.87
2019-04-26T18:05:41.783Z,4.10
2019-04-26T18:07:59.381Z,8.00
2019-04-26T18:10:27.635Z,4.57
2019-04-26T18:12:56.602Z,4.00
2019-04-26T18:15:25.808Z,4.47
2019-04-26T18:18:14.390Z,3.83
2019-04-26T18:21:01.134Z,6.93
2019-04-26T18:23:30.497Z,4.83
2019-04-26T18:25:59.980Z,4.10
2019-04-26T18:28:28.804Z,5.03
2019-04-26T18:30:57.593Z,4.30
2019-04-26T18:33:27.000Z,4.90
2019-04-26T18:35:57.601Z,4.43
2019-04-26T18:38:26.603Z,3.87
2019-04-26T18:41:00.737Z,4.43
2019-04-26T18:43:26.420Z,6.80
2019-04-26T18:45:58.723Z,6.37
2019-04-26T18:48:27.637Z,5.20
2019-04-26T18:50:56.639Z,4.20
2019-04-26T18:53:50.341Z,5.83
2019-04-26T18:56:19.246Z,4.97
2019-04-26T18:58:51.358Z,6.00
2019-04-26T19:01:20.088Z,5.00
2019-04-26T19:03:49.446Z,6.63
2019-04-26T19:06:28.847Z,8.80
2019-04-26T19:08:52.240Z,5.30
2019-04-26T19:11:21.784Z,5.70
2019-04-26T19:14:18.842Z,4.87
2019-04-26T19:17:12.054Z,4.97
2019-04-26T19:20:09.144Z,7.20
2019-04-26T19:22:38.680Z,6.20
2019-04-26T19:25:19.021Z,5.57
2019-04-26T19:27:49.375Z,6.57
2019-04-26T19:30:10.744Z,13.70
2019-04-26T19:32:40.622Z,12.70
2019-04-26T19:35:13.947Z,10.70
2019-04-26T19:37:40.413Z,7.50
2019-04-26T19:40:10.180Z,7.27
2019-04-26T19:42:39.563Z,8.60
2019-04-26T19:45:17.177Z,6.47
2019-04-26T19:48:02.317Z,9.70
2019-04-26T19:50:42.079Z,7.03
2019-04-26T19:53:21.346Z,7.10
2019-04-26T19:56:12.564Z,8.00
2019-04-26T19:58:42.212Z,7.23
2019-04-26T20:01:12.226Z,9.67
2019-04-26T20:03:43.123Z,8.70
2019-04-26T20:06:14.150Z,10.63
2019-04-26T20:08:45.910Z,17.73
2019-04-26T20:11:18.519Z,12.27
2019-04-26T20:13:46.902Z,7.97
2019-04-26T20:16:14.955Z,9.10
2019-04-26T20:18:43.891Z,8.80
2019-04-26T20:21:15.370Z,11.23
2019-04-26T20:23:47.207Z,7.77
2019-04-26T20:26:13.960Z,10.40
2019-04-26T20:28:42.881Z,9.80
2019-04-26T20:31:37.538Z,13.47
2019-04-26T20:34:10.941Z,11.07
2019-04-26T20:36:41.417Z,8.80
2019-04-26T20:39:09.671Z,10.63
2019-04-26T20:41:38.615Z,9.50
2019-04-26T20:44:09.927Z,8.30
2019-04-26T20:46:38.017Z,7.93
2019-04-26T20:49:09.142Z,9.83
2019-04-26T20:51:40.756Z,9.70
2019-04-26T20:54:11.960Z,6.70
2019-04-26T20:56:39.443Z,7.80
2019-04-26T20:59:08.668Z,11.17
2019-04-26T21:01:38.250Z,8.80
2019-04-26T21:04:07.445Z,10.13
2019-04-26T21:06:37.020Z,7.50
2019-04-26T21:09:08.235Z,10.10
2019-04-26T21:11:38.290Z,9.70
2019-04-26T21:14:08.666Z,9.90
2019-04-26T21:16:37.738Z,4.37
2019-04-26T21:19:06.705Z,11.17
2019-04-26T21:21:35.940Z,10.40
2019-04-26T21:24:05.841Z,10.83
2019-04-26T21:26:54.467Z,12.00
2019-04-26T21:29:43.530Z,13.33
2019-04-26T21:32:20.383Z,10.10
2019-04-26T21:34:50.671Z,9.37
2019-04-26T21:37:43.104Z,11.10
2019-04-26T21:40:22.742Z,12.53
2019-04-26T21:42:47.282Z,10.30
2019-04-26T21:45:16.458Z,12.90
2019-04-26T21:47:45.655Z,12.10
2019-04-26T21:50:14.667Z,9.23
2019-04-26T21:52:45.622Z,8.00
2019-04-26T21:55:16.639Z,12.20
2019-04-26T21:57:45.303Z,8.53
2019-04-26T22:00:27.012Z,8.97
2019-04-26T22:02:56.467Z,4.90
2019-04-26T22:05:25.363Z,3.93
2019-04-26T22:07:54.318Z,5.40
2019-04-26T22:10:30.740Z,3.40
2019-04-26T22:13:05.709Z,2.43
2019-04-26T22:15:45.286Z,1.87
2019-04-26T22:18:21.558Z,2.37
2019-04-26T22:21:11.068Z,2.60
2019-04-26T22:23:47.619Z,1.50
2019-04-26T22:26:17.794Z,2.00
2019-04-26T22:28:46.950Z,3.17
2019-04-26T22:31:15.849Z,2.90
2019-04-26T22:33:44.941Z,1.33
2019-04-26T22:36:13.863Z,3.90
2019-04-26T22:38:42.911Z,3.30
2019-04-26T22:41:13.440Z,2.10
2019-04-26T22:43:53.611Z,8.57
2019-04-26T22:46:48.651Z,4.40
2019-04-26T22:49:10.482Z,2.93
2019-04-26T22:51:39.944Z,1.53
2019-04-26T22:54:08.895Z,3.33
2019-04-26T22:56:38.415Z,2.73
2019-04-26T22:59:08.162Z,2.77
2019-04-26T23:01:39.085Z,3.53
2019-04-26T23:04:07.958Z,2.33
2019-04-26T23:06:36.934Z,2.83
2019-04-26T23:09:11.371Z,6.13
2019-04-26T23:11:39.525Z,3.60
2019-04-26T23:14:19.094Z,6.23
2019-04-26T23:17:08.964Z,5.57
2019-04-26T23:19:59.853Z,3.23
2019-04-26T23:22:31.010Z,5.07
2019-04-26T23:24:59.647Z,5.83
2019-04-26T23:27:30.674Z,7.90
2019-04-26T23:29:59.587Z,6.73
2019-04-26T23:32:28.676Z,8.00
2019-04-26T23:34:58.181Z,8.80
2019-04-26T23:37:28.475Z,8.87
2019-04-26T23:39:57.360Z,9.17
2019-04-26T23:42:26.144Z,15.70
2019-04-26T23:44:55.429Z,12.43
2019-04-26T23:47:25.612Z,13.30
2019-04-26T23:49:56.928Z,12.83
2019-04-26T23:52:25.145Z,15.93
2019-04-26T23:54:54.321Z,16.50
2019-04-26T23:57:23.530Z,13.73
2019-04-26T23:59:57.792Z,11.00
